Time;durP1;ratioP1;P1;durP2;ratioP2;P2;SDS_P1;SDS_P2;PMS_P1;PMS_P2;Temp;Humidity;BMP_temperature;BMP_pressure;BME280_temperature;BME280_humidity;BME280_pressure;Samples;Min_cycle;Max_cycle;Signal;HPM_P1;HPM_P2
2021/01/02 05:00:25;;;;;;;37.88;20.77;;;4.00;99.90;;;;;;5961351;23;21427;-69
2021/01/02 05:02:52;;;;;;;36.95;20.48;;;4.00;99.90;;;;;;4913546;29;20556;-71
2021/01/02 05:05:18;;;;;;;32.45;19.27;;;4.00;99.90;;;;;;4917928;29;20233;-71
2021/01/02 05:07:45;;;;;;;33.15;20.30;;;4.00;99.90;;;;;;4917298;29;20207;-70
2021/01/02 05:10:11;;;;;;;34.30;21.35;;;4.00;99.90;;;;;;4917513;29;20297;-70
2021/01/02 05:12:37;;;;;;;33.03;20.13;;;3.90;99.90;;;;;;4917168;29;20547;-70
2021/01/02 05:15:08;;;;;;;36.13;22.67;;;3.90;99.90;;;;;;4916521;28;20218;-71
2021/01/02 05:17:36;;;;;;;37.30;20.83;;;3.90;99.90;;;;;;4917285;29;20198;-70
2021/01/02 05:20:08;;;;;;;39.97;21.88;;;3.90;99.90;;;;;;4917128;29;20282;-71
2021/01/02 05:22:35;;;;;;;38.60;22.13;;;3.80;99.90;;;;;;4917658;29;20211;-71
2021/01/02 05:25:05;;;;;;;34.53;20.05;;;3.80;99.90;;;;;;4924882;28;20219;-71
2021/01/02 05:27:32;;;;;;;40.92;21.23;;;3.80;99.90;;;;;;4924053;29;20202;-71
2021/01/02 05:30:12;;;;;;;34.30;22.63;;;3.80;99.90;;;;;;4917975;29;20210;-70
2021/01/02 05:35:37;;;;;;;33.63;20.90;;;3.70;99.90;;;;;;5129622;27;20552;-70
2021/01/02 05:38:17;;;;;;;36.97;20.27;;;3.60;99.90;;;;;;5129733;27;20214;-70
2021/01/02 05:40:47;;;;;;;42.47;21.90;;;3.60;99.90;;;;;;5124158;28;20216;-70
2021/01/02 05:43:14;;;;;;;40.63;21.52;;;3.60;99.90;;;;;;5129854;28;20203;-70
2021/01/02 05:45:41;;;;;;;42.25;23.02;;;3.60;99.90;;;;;;5125014;27;20200;-70
2021/01/02 05:48:19;;;;;;;44.60;22.00;;;3.50;99.90;;;;;;5128708;27;20215;-70
2021/01/02 05:50:48;;;;;;;37.60;21.92;;;3.50;99.90;;;;;;5127352;27;20214;-70
2021/01/02 05:53:19;;;;;;;39.63;23.15;;;3.50;99.90;;;;;;5128478;28;20206;-70
2021/01/02 05:55:45;;;;;;;36.85;20.60;;;3.60;99.90;;;;;;5126099;27;20559;-70
2021/01/02 05:58:18;;;;;;;44.85;22.15;;;3.60;99.90;;;;;;5110738;28;20233;-70
2021/01/02 06:00:45;;;;;;;42.33;22.10;;;3.60;99.90;;;;;;5108221;28;20223;-70
2021/01/02 06:03:27;;;;;;;41.15;22.20;;;3.60;99.90;;;;;;5126606;28;20294;-70
2021/01/02 06:05:58;;;;;;;41.15;21.80;;;3.60;99.90;;;;;;5112583;28;20265;-70
2021/01/02 06:08:29;;;;;;;38.47;20.90;;;3.70;99.90;;;;;;5119235;27;20200;-70
2021/01/02 06:10:58;;;;;;;43.45;23.15;;;3.70;99.90;;;;;;5110575;28;20263;-70
2021/01/02 06:13:27;;;;;;;39.80;19.73;;;3.70;99.90;;;;;;5128322;27;20295;-70
2021/01/02 06:15:57;;;;;;;42.88;22.02;;;3.70;99.90;;;;;;5126672;27;20199;-70
2021/01/02 06:18:24;;;;;;;44.45;21.50;;;3.70;99.90;;;;;;5110390;28;20204;-70
2021/01/02 06:20:50;;;;;;;42.45;22.55;;;3.70;99.90;;;;;;5109126;28;20244;-71
2021/01/02 06:23:18;;;;;;;35.50;22.05;;;3.80;99.90;;;;;;5111990;28;20561;-71
2021/01/02 06:25:46;;;;;;;39.40;22.15;;;3.80;99.90;;;;;;5108427;28;20216;-70
2021/01/02 06:28:15;;;;;;;36.67;21.45;;;3.80;99.90;;;;;;5112134;28;20215;-71
2021/01/02 06:30:41;;;;;;;37.38;21.75;;;3.80;99.90;;;;;;5107697;28;20259;-70
2021/01/02 06:33:12;;;;;;;38.20;21.08;;;3.80;99.90;;;;;;5123958;28;20674;-71
2021/01/02 06:35:39;;;;;;;35.90;21.08;;;3.80;99.90;;;;;;5118024;27;20204;-70
2021/01/02 06:38:11;;;;;;;33.30;21.08;;;3.80;99.90;;;;;;5110514;28;20303;-70
2021/01/02 06:40:40;;;;;;;37.13;21.85;;;3.80;99.90;;;;;;5118287;27;20315;-71
2021/01/02 06:43:08;;;;;;;34.67;20.00;;;3.80;99.90;;;;;;5115937;27;20645;-71
2021/01/02 06:45:48;;;;;;;41.00;21.98;;;3.80;99.90;;;;;;5109611;28;20196;-70
2021/01/02 06:48:37;;;;;;;30.92;19.02;;;3.80;99.90;;;;;;5101691;28;20249;-70
2021/01/02 06:51:19;;;;;;;35.10;19.85;;;3.90;99.90;;;;;;5099774;28;20227;-70
2021/01/02 06:53:46;;;;;;;33.35;19.20;;;3.90;99.90;;;;;;5087498;28;20231;-70
2021/01/02 06:56:14;;;;;;;37.65;20.10;;;3.90;99.90;;;;;;5115215;28;20232;-70
2021/01/02 06:58:42;;;;;;;34.10;19.52;;;3.90;99.90;;;;;;5099022;28;20229;-70
2021/01/02 07:01:10;;;;;;;33.35;19.15;;;3.90;99.90;;;;;;5100699;28;20224;-70
2021/01/02 07:03:44;;;;;;;33.45;19.63;;;3.90;99.90;;;;;;5102771;28;20210;-70
2021/01/02 07:06:24;;;;;;;37.10;19.80;;;3.90;99.90;;;;;;5112569;28;20209;-70
2021/01/02 07:08:51;;;;;;;39.00;19.58;;;3.90;99.90;;;;;;5111214;27;20204;-70
2021/01/02 07:11:29;;;;;;;31.58;18.33;;;3.90;99.90;;;;;;5114707;28;20636;-70
2021/01/02 07:14:29;;;;;;;36.75;20.13;;;4.00;99.90;;;;;;5103548;28;20611;-71
2021/01/02 07:16:59;;;;;;;42.33;20.20;;;4.00;99.90;;;;;;5031852;28;20206;-70
2021/01/02 07:19:43;;;;;;;42.80;21.88;;;3.90;99.90;;;;;;5043172;28;20202;-69
2021/01/02 07:22:11;;;;;;;34.25;20.30;;;3.90;99.90;;;;;;5073556;28;20618;-69
2021/01/02 07:24:44;;;;;;;41.08;22.05;;;3.90;99.90;;;;;;5108635;28;20200;-70
2021/01/02 07:27:14;;;;;;;37.88;20.90;;;3.90;99.90;;;;;;5099524;28;20216;-69
2021/01/02 07:29:42;;;;;;;35.53;20.58;;;3.90;99.90;;;;;;5096948;28;20313;-69
2021/01/02 07:32:10;;;;;;;38.67;21.50;;;4.00;99.90;;;;;;5096259;28;20224;-69
2021/01/02 07:34:37;;;;;;;44.35;21.67;;;4.00;99.90;;;;;;5093945;28;20231;-68
2021/01/02 07:37:11;;;;;;;32.53;20.30;;;4.00;99.90;;;;;;5096623;28;20676;-69
2021/01/02 07:39:38;;;;;;;36.97;20.88;;;4.00;99.90;;;;;;5094291;28;20204;-69
2021/01/02 07:42:07;;;;;;;39.15;21.67;;;4.00;99.90;;;;;;5096522;28;20952;-68
2021/01/02 07:44:35;;;;;;;31.98;21.15;;;4.00;99.90;;;;;;5094135;28;20209;-68
2021/01/02 07:47:02;;;;;;;41.90;22.77;;;4.00;99.90;;;;;;5103526;28;20216;-70
2021/01/02 07:49:28;;;;;;;39.17;20.92;;;4.00;99.90;;;;;;5094352;28;20207;-70
2021/01/02 07:51:55;;;;;;;38.08;20.92;;;4.10;99.90;;;;;;5101987;28;20691;-71
2021/01/02 07:54:28;;;;;;;34.45;20.15;;;4.10;99.90;;;;;;5114547;28;20223;-72
2021/01/02 07:56:55;;;;;;;37.58;19.00;;;4.10;99.90;;;;;;5108900;28;20271;-71
2021/01/02 07:59:22;;;;;;;37.75;21.77;;;4.10;99.90;;;;;;5097710;28;20212;-70
2021/01/02 08:01:51;;;;;;;35.60;20.67;;;4.10;99.90;;;;;;5100634;28;20224;-71
2021/01/02 08:04:18;;;;;;;34.65;20.60;;;4.10;99.90;;;;;;5110452;28;20220;-71
2021/01/02 08:06:49;;;;;;;40.95;21.20;;;4.10;99.90;;;;;;5100036;28;20656;-71
2021/01/02 08:09:15;;;;;;;43.97;23.08;;;4.10;99.90;;;;;;5111137;28;20588;-71
2021/01/02 08:11:52;;;;;;;42.45;22.27;;;4.10;99.90;;;;;;5094784;28;20227;-71
2021/01/02 08:14:19;;;;;;;35.97;21.13;;;4.20;99.90;;;;;;5094290;28;20247;-71
2021/01/02 08:17:07;;;;;;;39.90;22.13;;;4.10;99.90;;;;;;5105546;28;20193;-71
2021/01/02 08:19:38;;;;;;;41.22;21.08;;;4.20;99.90;;;;;;5097478;28;20639;-72
2021/01/02 08:22:06;;;;;;;39.88;22.48;;;4.20;99.90;;;;;;5105664;28;20221;-71
2021/01/02 08:24:33;;;;;;;47.13;22.85;;;4.20;99.90;;;;;;5093532;28;20196;-71
2021/01/02 08:27:01;;;;;;;46.22;23.27;;;4.20;99.90;;;;;;5099535;28;20192;-69
2021/01/02 08:29:30;;;;;;;41.55;22.98;;;4.20;99.90;;;;;;5110178;28;20299;-69
2021/01/02 08:32:00;;;;;;;41.10;22.95;;;4.20;99.90;;;;;;5097541;28;20265;-69
2021/01/02 08:34:30;;;;;;;46.67;24.35;;;4.30;99.90;;;;;;5097221;28;20250;-69
2021/01/02 08:37:10;;;;;;;43.95;24.27;;;4.30;99.90;;;;;;5093206;28;20557;-69
2021/01/02 08:39:38;;;;;;;46.55;23.10;;;4.30;99.90;;;;;;5093357;28;20234;-69
2021/01/02 08:42:05;;;;;;;48.13;26.73;;;4.40;99.90;;;;;;5091926;28;20460;-69
2021/01/02 08:44:35;;;;;;;41.42;25.30;;;4.40;99.90;;;;;;5097240;28;20953;-69
2021/01/02 08:47:03;;;;;;;46.92;24.85;;;4.50;99.90;;;;;;5112168;28;20700;-69
2021/01/02 08:49:35;;;;;;;48.03;25.17;;;4.50;99.90;;;;;;5111587;28;20234;-69
2021/01/02 08:52:19;;;;;;;53.17;25.50;;;4.50;99.90;;;;;;5091971;28;20734;-69
2021/01/02 08:54:46;;;;;;;46.45;24.40;;;4.50;99.90;;;;;;5091625;28;20713;-69
2021/01/02 08:57:32;;;;;;;45.33;25.88;;;4.50;99.90;;;;;;5091809;28;20204;-69
2021/01/02 09:00:12;;;;;;;45.55;24.00;;;4.60;99.90;;;;;;5091444;28;20201;-69
2021/01/02 09:02:40;;;;;;;41.67;25.23;;;4.60;99.90;;;;;;5091592;28;20215;-69
2021/01/02 09:05:10;;;;;;;45.30;24.90;;;4.60;99.90;;;;;;5091715;28;20200;-68
2021/01/02 09:07:37;;;;;;;47.53;26.38;;;4.60;99.90;;;;;;5091464;28;20200;-70
2021/01/02 09:10:18;;;;;;;53.47;25.50;;;4.60;99.90;;;;;;5090746;28;20212;-69
2021/01/02 09:13:03;;;;;;;46.13;23.88;;;4.70;99.90;;;;;;5091516;28;20204;-69
2021/01/02 09:15:48;;;;;;;42.60;25.48;;;4.70;99.90;;;;;;5090526;28;20265;-68
2021/01/02 09:18:16;;;;;;;50.92;27.83;;;4.70;99.90;;;;;;5091883;28;20208;-69
2021/01/02 09:20:43;;;;;;;51.85;26.55;;;4.70;99.90;;;;;;5090985;28;20235;-69
2021/01/02 09:23:10;;;;;;;50.78;27.25;;;4.80;99.90;;;;;;5091467;28;20209;-69
2021/01/02 09:25:38;;;;;;;42.03;24.63;;;4.80;99.90;;;;;;5099631;28;20264;-69
2021/01/02 09:28:13;;;;;;;46.45;24.00;;;4.80;99.90;;;;;;5110177;28;20199;-69
2021/01/02 09:30:40;;;;;;;42.10;23.95;;;4.80;99.90;;;;;;5110807;28;20230;-69
2021/01/02 09:33:06;;;;;;;46.58;25.23;;;4.80;99.90;;;;;;5109065;28;20557;-69
2021/01/02 09:35:32;;;;;;;43.65;24.70;;;4.80;99.90;;;;;;5109451;28;20267;-69
2021/01/02 09:37:59;;;;;;;48.30;24.13;;;4.90;99.90;;;;;;5111789;28;20204;-69
2021/01/02 09:40:26;;;;;;;46.08;23.48;;;4.90;99.90;;;;;;5107893;28;20207;-69
2021/01/02 09:42:53;;;;;;;44.70;24.55;;;4.90;99.90;;;;;;5109303;28;20220;-69
2021/01/02 09:45:19;;;;;;;38.40;21.98;;;4.90;99.90;;;;;;5111219;28;20211;-69
2021/01/02 09:47:45;;;;;;;45.03;23.98;;;5.00;99.90;;;;;;5108692;28;20211;-69
2021/01/02 09:50:12;;;;;;;39.92;23.42;;;5.00;99.90;;;;;;5109796;28;20207;-69
2021/01/02 09:52:38;;;;;;;43.55;24.90;;;5.00;99.90;;;;;;5091829;28;20208;-69
2021/01/02 09:55:05;;;;;;;58.10;28.83;;;5.10;99.90;;;;;;5098337;28;20223;-69
2021/01/02 09:57:32;;;;;;;44.97;23.63;;;5.10;99.90;;;;;;5098018;28;20253;-69
2021/01/02 09:59:58;;;;;;;41.00;23.02;;;5.10;99.90;;;;;;5093219;28;20277;-71
2021/01/02 10:02:25;;;;;;;41.45;24.63;;;5.10;99.90;;;;;;5103527;28;20220;-69
2021/01/02 10:04:51;;;;;;;54.63;28.15;;;5.10;99.90;;;;;;5105006;28;20534;-69
2021/01/02 10:07:18;;;;;;;36.53;23.45;;;5.10;99.90;;;;;;5111154;28;20615;-69
2021/01/02 10:09:46;;;;;;;39.03;22.80;;;5.10;99.90;;;;;;5103353;28;20199;-69
2021/01/02 10:12:14;;;;;;;41.33;22.45;;;5.10;99.90;;;;;;5098168;28;20735;-69
2021/01/02 10:14:41;;;;;;;35.78;20.48;;;5.10;99.90;;;;;;5094621;28;20231;-69
2021/01/02 10:17:08;;;;;;;48.50;27.20;;;5.10;99.90;;;;;;5111202;28;20200;-69
2021/01/02 10:19:35;;;;;;;38.33;22.45;;;5.20;99.90;;;;;;5097656;28;20208;-69
2021/01/02 10:22:03;;;;;;;44.50;25.60;;;5.10;99.90;;;;;;5107928;28;20251;-69
2021/01/02 10:24:30;;;;;;;41.35;24.33;;;5.20;99.90;;;;;;5109841;28;20196;-69
2021/01/02 10:26:56;;;;;;;53.42;25.65;;;5.20;99.90;;;;;;5101864;28;20223;-69
2021/01/02 10:29:23;;;;;;;46.10;27.02;;;5.20;99.90;;;;;;5094771;28;20570;-69
2021/01/02 10:31:50;;;;;;;44.15;23.80;;;5.30;99.90;;;;;;5106017;28;20250;-69
2021/01/02 10:34:17;;;;;;;44.65;24.02;;;5.30;99.90;;;;;;5113290;28;20235;-69
2021/01/02 10:36:45;;;;;;;42.47;24.95;;;5.40;99.90;;;;;;5113027;28;20317;-69
2021/01/02 10:39:12;;;;;;;38.88;23.17;;;5.50;99.90;;;;;;5096874;28;20197;-69
2021/01/02 10:41:38;;;;;;;42.10;25.38;;;5.50;99.90;;;;;;5105163;28;20577;-70
2021/01/02 10:44:05;;;;;;;37.55;21.60;;;5.50;99.90;;;;;;5111833;28;20193;-70
2021/01/02 10:46:31;;;;;;;44.65;23.50;;;5.50;99.90;;;;;;5101995;28;20675;-70
2021/01/02 10:48:58;;;;;;;42.72;25.42;;;5.50;99.90;;;;;;5113606;28;20218;-70
2021/01/02 10:51:24;;;;;;;40.05;24.13;;;5.60;99.90;;;;;;5111984;28;20223;-70
2021/01/02 10:53:50;;;;;;;38.47;20.42;;;5.60;99.90;;;;;;5102825;28;20200;-70
2021/01/02 10:56:21;;;;;;;38.25;20.00;;;5.60;99.90;;;;;;5095770;28;20254;-70
2021/01/02 10:58:48;;;;;;;42.90;25.60;;;5.60;99.90;;;;;;5107181;28;20605;-70
2021/01/02 11:01:15;;;;;;;40.65;22.50;;;5.60;99.90;;;;;;5093641;28;20641;-69
2021/01/02 11:03:41;;;;;;;42.38;24.65;;;5.60;99.90;;;;;;5093634;28;20664;-70
2021/01/02 11:06:10;;;;;;;47.22;24.13;;;5.50;99.90;;;;;;5094637;28;20329;-70
2021/01/02 11:08:36;;;;;;;41.65;23.20;;;5.50;99.90;;;;;;5094594;28;20207;-70
2021/01/02 11:11:03;;;;;;;38.97;21.33;;;5.50;99.90;;;;;;5094247;28;20317;-70
2021/01/02 11:13:29;;;;;;;45.35;26.40;;;5.60;99.90;;;;;;5093677;28;20215;-70
2021/01/02 11:15:56;;;;;;;39.70;22.40;;;5.60;99.90;;;;;;5093732;28;20216;-69
2021/01/02 11:18:22;;;;;;;39.50;22.92;;;5.60;99.90;;;;;;5094234;28;20610;-70
2021/01/02 11:20:48;;;;;;;43.97;24.52;;;5.60;99.90;;;;;;5095143;28;20584;-70
2021/01/02 11:23:16;;;;;;;37.35;22.48;;;5.60;99.90;;;;;;5103857;27;20602;-70
2021/01/02 11:25:43;;;;;;;41.05;24.08;;;5.60;99.90;;;;;;5093678;28;20228;-70
2021/01/02 11:28:09;;;;;;;40.60;24.85;;;5.70;99.90;;;;;;5093823;28;20564;-70
2021/01/02 11:30:35;;;;;;;42.88;22.88;;;5.70;99.90;;;;;;5092679;28;20224;-70
2021/01/02 11:33:02;;;;;;;40.85;23.15;;;5.70;99.90;;;;;;5102100;28;20207;-70
2021/01/02 11:35:28;;;;;;;37.65;22.45;;;5.70;99.90;;;;;;5100526;27;20590;-72
2021/01/02 11:37:54;;;;;;;54.53;27.17;;;5.70;99.90;;;;;;5105845;28;20207;-72
2021/01/02 11:40:21;;;;;;;51.28;27.60;;;5.70;99.90;;;;;;5107501;28;20592;-71
2021/01/02 11:42:47;;;;;;;48.30;24.80;;;5.80;99.90;;;;;;5093649;28;20567;-71
2021/01/02 11:45:15;;;;;;;60.85;28.58;;;5.80;99.90;;;;;;5093474;28;20196;-71
2021/01/02 11:47:41;;;;;;;50.92;25.90;;;5.80;99.90;;;;;;5095828;28;20205;-71
2021/01/02 11:50:09;;;;;;;45.53;25.90;;;5.80;99.90;;;;;;5102473;28;20209;-71
2021/01/02 11:52:35;;;;;;;44.03;25.88;;;5.80;99.90;;;;;;5099796;28;20201;-71
2021/01/02 11:55:03;;;;;;;43.15;25.35;;;5.80;99.90;;;;;;5093096;28;20225;-71
2021/01/02 11:57:30;;;;;;;45.63;23.10;;;5.80;99.90;;;;;;5108349;28;20210;-71
2021/01/02 11:59:57;;;;;;;38.95;21.88;;;5.80;99.90;;;;;;5113234;28;20204;-71
2021/01/02 12:02:23;;;;;;;41.88;24.55;;;5.80;99.90;;;;;;5100186;27;20254;-71
2021/01/02 12:04:49;;;;;;;40.33;23.02;;;5.80;99.90;;;;;;5092641;28;20203;-71
2021/01/02 12:07:15;;;;;;;34.35;21.38;;;5.80;99.90;;;;;;5093431;28;20201;-71
2021/01/02 12:09:43;;;;;;;39.13;21.30;;;5.80;99.90;;;;;;5100583;28;20219;-71
2021/01/02 12:12:10;;;;;;;32.30;20.75;;;5.80;99.90;;;;;;5105283;28;20216;-71
2021/01/02 12:14:37;;;;;;;35.38;20.13;;;5.80;99.90;;;;;;5106460;28;20223;-71
2021/01/02 12:17:08;;;;;;;36.13;20.30;;;5.80;99.90;;;;;;5094715;28;20261;-71
2021/01/02 12:19:34;;;;;;;33.90;21.17;;;5.80;99.90;;;;;;5110632;27;20299;-71
2021/01/02 12:22:04;;;;;;;38.67;20.45;;;5.80;99.90;;;;;;5112883;28;20310;-71
2021/01/02 12:24:31;;;;;;;31.08;19.27;;;5.80;99.90;;;;;;5113724;28;20208;-71
2021/01/02 12:26:59;;;;;;;29.25;18.85;;;5.80;99.90;;;;;;5112870;28;20284;-68
2021/01/02 12:29:28;;;;;;;32.65;19.05;;;5.80;99.90;;;;;;5108448;28;20532;-67
2021/01/02 12:31:57;;;;;;;29.95;17.70;;;5.80;99.90;;;;;;5109849;28;20232;-70
2021/01/02 12:34:26;;;;;;;34.40;17.88;;;5.80;99.90;;;;;;5092950;28;20216;-71
2021/01/02 12:36:53;;;;;;;31.33;18.38;;;5.80;99.90;;;;;;5093081;28;20205;-71
2021/01/02 12:39:22;;;;;;;42.88;22.50;;;5.70;99.90;;;;;;5093287;28;20211;-71
2021/01/02 12:41:49;;;;;;;32.40;21.10;;;5.70;99.90;;;;;;5092348;28;20224;-71
2021/01/02 12:44:15;;;;;;;31.85;20.10;;;5.70;99.90;;;;;;5092223;28;20249;-71
2021/01/02 12:46:43;;;;;;;35.17;19.48;;;5.80;99.90;;;;;;5092970;28;20209;-71
2021/01/02 12:49:12;;;;;;;35.20;19.30;;;5.80;99.90;;;;;;5093094;28;20200;-71
2021/01/02 12:51:39;;;;;;;35.25;18.45;;;5.80;99.90;;;;;;5093072;28;20649;-71
2021/01/02 12:54:05;;;;;;;34.90;19.48;;;5.80;99.90;;;;;;5093298;28;20251;-71
2021/01/02 12:56:32;;;;;;;30.77;20.40;;;5.70;99.90;;;;;;5093875;28;20211;-71
2021/01/02 12:58:58;;;;;;;29.52;18.48;;;5.80;99.90;;;;;;5102999;28;20199;-71
2021/01/02 13:01:24;;;;;;;29.73;18.13;;;5.70;99.90;;;;;;5112878;28;20294;-71
2021/01/02 13:03:53;;;;;;;33.88;17.65;;;5.70;99.90;;;;;;5114326;28;20208;-71
2021/01/02 13:06:20;;;;;;;26.45;18.60;;;5.70;99.90;;;;;;5109245;28;20248;-72
2021/01/02 13:08:46;;;;;;;30.33;19.92;;;5.70;99.90;;;;;;5094865;28;20208;-72
2021/01/02 13:11:14;;;;;;;28.15;17.95;;;5.70;99.90;;;;;;5094124;28;20231;-72
2021/01/02 13:13:42;;;;;;;33.00;18.73;;;5.70;99.90;;;;;;5095064;28;20303;-71
2021/01/02 13:16:11;;;;;;;29.85;17.42;;;5.70;99.90;;;;;;5097071;28;20679;-72
2021/01/02 13:18:37;;;;;;;27.88;15.90;;;5.80;99.90;;;;;;5096092;28;20205;-72
2021/01/02 13:21:05;;;;;;;35.78;17.80;;;5.70;99.90;;;;;;5095254;28;20256;-72
2021/01/02 13:23:32;;;;;;;31.00;19.52;;;5.70;99.90;;;;;;5096951;28;20200;-71
2021/01/02 13:26:01;;;;;;;27.30;16.98;;;5.70;99.90;;;;;;5095703;28;20201;-71
2021/01/02 13:28:27;;;;;;;30.35;17.50;;;5.70;99.90;;;;;;5094252;28;20204;-71
2021/01/02 13:30:54;;;;;;;31.52;18.60;;;5.70;99.90;;;;;;5092363;28;20305;-71
2021/01/02 13:33:20;;;;;;;27.02;16.15;;;5.70;99.90;;;;;;5092562;28;20211;-71
2021/01/02 13:35:46;;;;;;;26.10;14.95;;;5.70;99.90;;;;;;5092703;28;20231;-71
2021/01/02 13:38:12;;;;;;;23.48;14.10;;;5.70;99.90;;;;;;5093082;28;20265;-71
2021/01/02 13:40:39;;;;;;;28.83;16.45;;;5.70;99.90;;;;;;5110174;28;20247;-71
2021/01/02 13:43:06;;;;;;;25.95;16.35;;;5.70;99.90;;;;;;5113165;28;20204;-71
2021/01/02 13:45:32;;;;;;;47.85;22.23;;;5.60;99.90;;;;;;5112112;28;20655;-71
2021/01/02 13:47:58;;;;;;;39.92;21.38;;;5.70;99.90;;;;;;5112601;28;20211;-72
2021/01/02 13:50:26;;;;;;;23.85;14.15;;;5.60;99.90;;;;;;5112636;28;20204;-71
2021/01/02 13:52:52;;;;;;;25.15;14.88;;;5.60;99.90;;;;;;5112816;28;20360;-71
2021/01/02 13:55:18;;;;;;;30.13;15.70;;;5.60;99.90;;;;;;5112962;28;20223;-71
2021/01/02 13:57:45;;;;;;;23.83;15.48;;;5.60;99.90;;;;;;5096352;28;20201;-71
2021/01/02 14:00:12;;;;;;;25.95;15.40;;;5.60;99.90;;;;;;5095594;28;20200;-71
2021/01/02 14:02:39;;;;;;;28.70;15.73;;;5.60;99.90;;;;;;5096302;28;20203;-71
2021/01/02 14:05:06;;;;;;;26.75;14.98;;;5.60;99.90;;;;;;5096088;28;20197;-71
2021/01/02 14:07:32;;;;;;;25.70;15.02;;;5.60;99.90;;;;;;5095543;28;20208;-71
2021/01/02 14:09:58;;;;;;;26.13;14.75;;;5.60;99.90;;;;;;5096011;28;20739;-72
2021/01/02 14:12:24;;;;;;;25.98;14.68;;;5.60;99.90;;;;;;5099733;28;20224;-71
2021/01/02 14:14:51;;;;;;;27.70;15.55;;;5.60;99.90;;;;;;5098021;28;20306;-71
2021/01/02 14:17:21;;;;;;;22.35;14.15;;;5.60;99.90;;;;;;5096828;28;20208;-70
2021/01/02 14:19:47;;;;;;;24.35;15.38;;;5.60;99.90;;;;;;5096033;28;20632;-70
2021/01/02 14:22:13;;;;;;;31.17;15.55;;;5.60;99.90;;;;;;5096413;28;20235;-70
2021/01/02 14:24:39;;;;;;;25.00;14.77;;;5.60;99.90;;;;;;5096334;28;20200;-70
2021/01/02 14:27:06;;;;;;;25.20;14.93;;;5.60;99.90;;;;;;5095861;28;20212;-71
2021/01/02 14:29:34;;;;;;;20.67;14.43;;;5.60;99.90;;;;;;5100832;28;20270;-71
2021/01/02 14:32:03;;;;;;;31.63;14.95;;;5.60;99.90;;;;;;5104449;28;20315;-71
2021/01/02 14:34:30;;;;;;;24.15;13.45;;;5.60;99.90;;;;;;5102348;28;20224;-71
2021/01/02 14:36:58;;;;;;;29.50;15.15;;;5.60;99.90;;;;;;5102964;28;20204;-71
2021/01/02 14:39:26;;;;;;;31.35;14.77;;;5.60;99.90;;;;;;5102474;28;20605;-72
2021/01/02 14:41:55;;;;;;;23.83;14.60;;;5.60;99.90;;;;;;5104331;28;20236;-71
2021/01/02 14:44:21;;;;;;;27.05;15.73;;;5.60;99.90;;;;;;5101023;28;20204;-69
2021/01/02 14:46:47;;;;;;;29.90;16.67;;;5.60;99.90;;;;;;5096121;28;20277;-69
2021/01/02 14:49:14;;;;;;;26.80;16.13;;;5.60;99.90;;;;;;5094981;28;20215;-72
2021/01/02 14:51:43;;;;;;;28.20;16.50;;;5.60;99.90;;;;;;5094305;28;20224;-72
2021/01/02 14:54:10;;;;;;;23.63;15.10;;;5.60;99.90;;;;;;5095932;28;20639;-72
2021/01/02 14:56:36;;;;;;;22.00;16.05;;;5.60;99.90;;;;;;5094778;28;20320;-72
2021/01/02 14:59:04;;;;;;;25.95;14.85;;;5.50;99.90;;;;;;5093867;28;20205;-72
2021/01/02 15:01:33;;;;;;;29.65;15.20;;;5.50;99.90;;;;;;5094249;28;20221;-72
2021/01/02 15:04:00;;;;;;;26.23;15.93;;;5.50;99.90;;;;;;5094414;28;20200;-72
2021/01/02 15:06:27;;;;;;;25.88;15.32;;;5.50;99.90;;;;;;5093623;28;20273;-72
2021/01/02 15:08:53;;;;;;;27.50;16.33;;;5.50;99.90;;;;;;5094267;28;20208;-72
2021/01/02 15:11:22;;;;;;;26.25;16.10;;;5.50;99.90;;;;;;5094021;28;20248;-72
2021/01/02 15:13:48;;;;;;;27.63;17.10;;;5.50;99.90;;;;;;5093701;28;20249;-72
2021/01/02 15:16:14;;;;;;;31.73;16.48;;;5.50;99.90;;;;;;5094645;28;20212;-72
2021/01/02 15:18:41;;;;;;;33.95;17.60;;;5.50;99.90;;;;;;5094034;28;20220;-71
2021/01/02 15:21:07;;;;;;;29.15;16.65;;;5.50;99.90;;;;;;5093719;28;20225;-72
2021/01/02 15:23:35;;;;;;;30.10;15.75;;;5.40;99.90;;;;;;5093751;28;20681;-70
2021/01/02 15:26:01;;;;;;;30.33;16.02;;;5.40;99.90;;;;;;5095155;28;20417;-72
2021/01/02 15:28:27;;;;;;;24.38;13.43;;;5.40;99.90;;;;;;5100324;28;20207;-71
2021/01/02 15:30:54;;;;;;;30.75;16.52;;;5.40;99.90;;;;;;5108620;28;20227;-70
2021/01/02 15:33:20;;;;;;;29.55;14.25;;;5.40;99.90;;;;;;5098188;28;20665;-69
2021/01/02 15:35:46;;;;;;;28.38;16.92;;;5.30;99.90;;;;;;5098167;28;20303;-69
2021/01/02 15:38:14;;;;;;;26.52;14.48;;;5.30;99.90;;;;;;5114147;28;20230;-69
2021/01/02 15:40:41;;;;;;;23.42;14.00;;;5.30;99.90;;;;;;5113131;28;20659;-69
2021/01/02 15:43:07;;;;;;;27.60;16.23;;;5.30;99.90;;;;;;5113500;28;20227;-69
2021/01/02 15:45:33;;;;;;;28.60;15.85;;;5.30;99.90;;;;;;5100310;28;20262;-69
2021/01/02 15:47:59;;;;;;;32.85;17.10;;;5.30;99.90;;;;;;5108672;28;20569;-69
2021/01/02 15:50:26;;;;;;;25.60;15.88;;;5.30;99.90;;;;;;5095471;28;20201;-69
2021/01/02 15:52:52;;;;;;;29.08;17.10;;;5.20;99.90;;;;;;5093003;28;20211;-69
2021/01/02 15:55:18;;;;;;;24.25;14.90;;;5.20;99.90;;;;;;5094116;28;20224;-71
2021/01/02 15:57:45;;;;;;;33.05;18.10;;;5.20;99.90;;;;;;5093048;28;20257;-71
2021/01/02 16:00:12;;;;;;;25.17;14.90;;;5.20;99.90;;;;;;5105568;28;20268;-71
2021/01/02 16:02:39;;;;;;;24.67;14.60;;;5.20;99.90;;;;;;5112659;28;20214;-71
2021/01/02 16:05:06;;;;;;;31.13;16.45;;;5.20;99.90;;;;;;5112531;28;20241;-71
2021/01/02 16:07:34;;;;;;;29.30;16.42;;;5.20;99.90;;;;;;5112991;28;20211;-70
2021/01/02 16:10:01;;;;;;;28.80;15.77;;;5.20;99.90;;;;;;5112818;28;20224;-70
2021/01/02 16:12:27;;;;;;;29.45;16.48;;;5.20;99.90;;;;;;5107245;28;20220;-71
2021/01/02 16:14:54;;;;;;;26.25;15.48;;;5.20;99.90;;;;;;5092833;28;20675;-70
2021/01/02 16:17:20;;;;;;;29.58;16.27;;;5.20;99.90;;;;;;5112188;28;20204;-71
2021/01/02 16:19:46;;;;;;;27.10;16.52;;;5.20;99.90;;;;;;5110167;28;20208;-70
2021/01/02 16:22:13;;;;;;;29.38;16.63;;;5.10;99.90;;;;;;5106281;28;20715;-70
2021/01/02 16:24:40;;;;;;;33.42;15.75;;;5.10;99.90;;;;;;5111823;28;20204;-70
2021/01/02 16:27:08;;;;;;;26.30;14.50;;;5.10;99.90;;;;;;5092983;28;20566;-70
2021/01/02 16:29:35;;;;;;;27.20;14.98;;;5.10;99.90;;;;;;5101159;28;20196;-70
2021/01/02 16:32:05;;;;;;;24.30;13.10;;;5.10;99.90;;;;;;5097711;28;20220;-70
2021/01/02 16:34:33;;;;;;;29.23;16.25;;;5.10;99.90;;;;;;5094105;28;20520;-72
2021/01/02 16:37:04;;;;;;;27.00;14.60;;;5.00;99.90;;;;;;5094669;28;20536;-73
2021/01/02 16:39:31;;;;;;;25.55;14.65;;;5.00;99.90;;;;;;5099619;28;20207;-73
2021/01/02 16:41:58;;;;;;;26.98;15.85;;;5.00;99.90;;;;;;5113850;28;20231;-72
2021/01/02 16:44:24;;;;;;;23.70;14.85;;;5.00;99.90;;;;;;5100695;28;20200;-72
2021/01/02 16:46:56;;;;;;;27.75;13.25;;;5.00;99.90;;;;;;5115490;28;20252;-70
2021/01/02 16:49:23;;;;;;;29.90;15.00;;;5.00;99.90;;;;;;5097209;28;20216;-72
2021/01/02 16:51:49;;;;;;;25.92;14.70;;;5.00;99.90;;;;;;5104141;28;20253;-72
2021/01/02 16:54:16;;;;;;;22.35;13.57;;;5.00;99.90;;;;;;5109383;28;20570;-72
2021/01/02 16:56:45;;;;;;;40.38;16.08;;;5.00;99.90;;;;;;5094346;28;20257;-72
2021/01/02 16:59:12;;;;;;;23.58;14.40;;;5.00;99.90;;;;;;5094399;28;20656;-72
2021/01/02 17:01:38;;;;;;;25.13;14.77;;;5.00;99.90;;;;;;5093337;28;20227;-72
2021/01/02 17:04:05;;;;;;;24.90;14.90;;;5.00;99.90;;;;;;5099763;28;20656;-72
2021/01/02 17:06:32;;;;;;;26.15;15.10;;;5.00;99.90;;;;;;5096624;28;20196;-72
2021/01/02 17:09:01;;;;;;;34.47;16.67;;;5.00;99.90;;;;;;5100316;28;20196;-72
2021/01/02 17:11:29;;;;;;;30.20;16.02;;;5.00;99.90;;;;;;5105545;28;20265;-71
2021/01/02 17:13:56;;;;;;;28.23;16.20;;;5.00;99.90;;;;;;5099274;28;20204;-72
2021/01/02 17:16:25;;;;;;;28.58;15.70;;;4.90;99.90;;;;;;5097999;28;20753;-72
2021/01/02 17:18:52;;;;;;;27.40;15.75;;;4.90;99.90;;;;;;5098620;28;20192;-72
2021/01/02 17:21:19;;;;;;;26.55;16.92;;;5.00;99.90;;;;;;5114335;28;20695;-72
2021/01/02 17:23:48;;;;;;;29.25;14.77;;;5.00;99.90;;;;;;5097716;28;20208;-72
2021/01/02 17:26:21;;;;;;;25.23;14.25;;;5.00;99.90;;;;;;5105845;28;20193;-72
2021/01/02 17:28:48;;;;;;;27.85;16.95;;;5.00;99.90;;;;;;5102146;28;20478;-72
2021/01/02 17:31:14;;;;;;;28.67;16.65;;;5.00;99.90;;;;;;5107356;28;20295;-71
2021/01/02 17:33:41;;;;;;;33.65;17.25;;;4.90;99.90;;;;;;5093749;28;20280;-71
2021/01/02 17:36:07;;;;;;;29.88;15.57;;;4.90;99.90;;;;;;5105773;28;20713;-71
2021/01/02 17:38:33;;;;;;;31.45;15.77;;;4.90;99.90;;;;;;5095283;28;20200;-70
2021/01/02 17:41:01;;;;;;;28.33;15.77;;;4.90;99.90;;;;;;5108762;28;20229;-70
2021/01/02 17:43:27;;;;;;;23.35;14.90;;;4.90;99.90;;;;;;5094844;28;20208;-70